Terminal Aerodrome Forecast
Issued by NWS

Home | Current Version | Previous Version | Text Only | Print | Product List | Glossary On
Versions: 1 2 3 4 5 6 7 8 9 10 11 12 13 14 15 16 17 18
000
FTUS42 KTBW 301100
TAFPIE
TAF
KPIE 301132Z 3012/0112 VRB04KT P6SM VCSH SCT020 BKN100
     FM301400 25008KT P6SM VCTS SCT025CB BKN080
     FM302100 28008KT P6SM VCTS SCT030CB BKN080
     FM010200 VRB04KT P6SM VCSH SCT025 BKN050=

USA.gov is the U.S. government's official web portal to all federal, state and local government web resources and services.